sensor_id;sensor_type;location;lat;lon;timestamp;P1;durP1;ratioP1;P2;durP2;ratioP2
5355;SDS011;70449;52.486;13.386;2023-11-18T00:02:00;9.20;;;6.60;;
5355;SDS011;70449;52.486;13.386;2023-11-18T00:04:28;12.47;;;7.40;;
5355;SDS011;70449;52.486;13.386;2023-11-18T00:06:55;8.40;;;6.80;;
5355;SDS011;70449;52.486;13.386;2023-11-18T00:09:26;19.80;;;5.60;;
5355;SDS011;70449;52.486;13.386;2023-11-18T00:11:53;10.03;;;5.87;;
5355;SDS011;70449;52.486;13.386;2023-11-18T00:14:20;6.77;;;5.50;;
5355;SDS011;70449;52.486;13.386;2023-11-18T00:16:47;12.50;;;6.80;;
5355;SDS011;70449;52.486;13.386;2023-11-18T00:19:15;9.63;;;6.37;;
5355;SDS011;70449;52.486;13.386;2023-11-18T00:21:42;12.67;;;7.03;;
5355;SDS011;70449;52.486;13.386;2023-11-18T00:24:09;9.50;;;6.07;;
5355;SDS011;70449;52.486;13.386;2023-11-18T00:26:39;9.50;;;6.17;;
5355;SDS011;70449;52.486;13.386;2023-11-18T00:29:07;9.40;;;7.40;;
5355;SDS011;70449;52.486;13.386;2023-11-18T00:31:34;10.80;;;6.87;;
5355;SDS011;70449;52.486;13.386;2023-11-18T00:34:01;7.50;;;6.07;;
5355;SDS011;70449;52.486;13.386;2023-11-18T00:36:29;10.03;;;7.20;;
5355;SDS011;70449;52.486;13.386;2023-11-18T00:38:56;10.13;;;7.37;;
5355;SDS011;70449;52.486;13.386;2023-11-18T00:41:23;9.90;;;6.50;;
5355;SDS011;70449;52.486;13.386;2023-11-18T00:43:53;8.87;;;6.03;;
5355;SDS011;70449;52.486;13.386;2023-11-18T00:46:21;9.97;;;6.03;;
5355;SDS011;70449;52.486;13.386;2023-11-18T00:48:48;10.77;;;7.13;;
5355;SDS011;70449;52.486;13.386;2023-11-18T00:51:16;9.37;;;6.10;;
5355;SDS011;70449;52.486;13.386;2023-11-18T00:53:43;8.23;;;6.50;;
5355;SDS011;70449;52.486;13.386;2023-11-18T00:56:12;10.90;;;5.70;;
5355;SDS011;70449;52.486;13.386;2023-11-18T00:58:43;10.87;;;6.90;;
5355;SDS011;70449;52.486;13.386;2023-11-18T01:01:11;8.90;;;6.30;;
5355;SDS011;70449;52.486;13.386;2023-11-18T01:03:43;9.30;;;6.80;;
5355;SDS011;70449;52.486;13.386;2023-11-18T01:06:10;16.50;;;7.20;;
5355;SDS011;70449;52.486;13.386;2023-11-18T01:08:37;12.60;;;6.40;;
5355;SDS011;70449;52.486;13.386;2023-11-18T01:11:05;8.70;;;6.37;;
5355;SDS011;70449;52.486;13.386;2023-11-18T01:13:32;12.77;;;7.63;;
5355;SDS011;70449;52.486;13.386;2023-11-18T01:15:59;9.10;;;6.90;;
5355;SDS011;70449;52.486;13.386;2023-11-18T01:18:28;9.13;;;5.93;;
5355;SDS011;70449;52.486;13.386;2023-11-18T01:20:55;9.30;;;7.27;;
5355;SDS011;70449;52.486;13.386;2023-11-18T01:23:24;4.00;;;3.50;;
5355;SDS011;70449;52.486;13.386;2023-11-18T01:25:51;7.60;;;6.60;;
5355;SDS011;70449;52.486;13.386;2023-11-18T01:28:18;11.87;;;7.33;;
5355;SDS011;70449;52.486;13.386;2023-11-18T01:30:45;9.63;;;7.00;;
5355;SDS011;70449;52.486;13.386;2023-11-18T01:33:12;10.27;;;7.13;;
5355;SDS011;70449;52.486;13.386;2023-11-18T01:35:41;9.57;;;6.63;;
5355;SDS011;70449;52.486;13.386;2023-11-18T01:38:10;6.93;;;5.60;;
5355;SDS011;70449;52.486;13.386;2023-11-18T01:40:38;14.57;;;6.83;;
5355;SDS011;70449;52.486;13.386;2023-11-18T01:43:05;8.77;;;6.50;;
5355;SDS011;70449;52.486;13.386;2023-11-18T01:45:39;10.97;;;6.70;;
5355;SDS011;70449;52.486;13.386;2023-11-18T01:48:07;14.20;;;6.73;;
5355;SDS011;70449;52.486;13.386;2023-11-18T01:50:35;6.90;;;5.93;;
5355;SDS011;70449;52.486;13.386;2023-11-18T01:53:08;11.00;;;8.00;;
5355;SDS011;70449;52.486;13.386;2023-11-18T01:55:39;14.43;;;6.67;;
5355;SDS011;70449;52.486;13.386;2023-11-18T01:58:06;11.30;;;7.00;;
5355;SDS011;70449;52.486;13.386;2023-11-18T02:00:36;9.67;;;6.00;;
5355;SDS011;70449;52.486;13.386;2023-11-18T02:03:06;12.23;;;8.27;;
5355;SDS011;70449;52.486;13.386;2023-11-18T02:05:34;13.90;;;6.50;;
5355;SDS011;70449;52.486;13.386;2023-11-18T02:08:03;8.80;;;6.30;;
5355;SDS011;70449;52.486;13.386;2023-11-18T02:10:33;11.53;;;7.80;;
5355;SDS011;70449;52.486;13.386;2023-11-18T02:13:04;11.17;;;6.87;;
5355;SDS011;70449;52.486;13.386;2023-11-18T02:15:39;7.67;;;6.27;;
5355;SDS011;70449;52.486;13.386;2023-11-18T02:18:08;8.23;;;6.20;;
5355;SDS011;70449;52.486;13.386;2023-11-18T02:20:36;12.03;;;6.10;;
5355;SDS011;70449;52.486;13.386;2023-11-18T02:23:04;9.00;;;6.73;;
5355;SDS011;70449;52.486;13.386;2023-11-18T02:25:34;8.30;;;5.80;;
5355;SDS011;70449;52.486;13.386;2023-11-18T02:28:07;10.13;;;7.47;;
5355;SDS011;70449;52.486;13.386;2023-11-18T02:30:34;9.27;;;6.97;;
5355;SDS011;70449;52.486;13.386;2023-11-18T02:33:03;7.23;;;6.10;;
5355;SDS011;70449;52.486;13.386;2023-11-18T02:35:41;11.13;;;6.53;;
5355;SDS011;70449;52.486;13.386;2023-11-18T02:38:18;11.20;;;6.57;;
5355;SDS011;70449;52.486;13.386;2023-11-18T02:40:52;8.03;;;5.70;;
5355;SDS011;70449;52.486;13.386;2023-11-18T02:43:24;7.77;;;5.50;;
5355;SDS011;70449;52.486;13.386;2023-11-18T02:45:54;7.17;;;6.07;;
5355;SDS011;70449;52.486;13.386;2023-11-18T02:48:23;9.43;;;7.07;;
5355;SDS011;70449;52.486;13.386;2023-11-18T02:50:52;7.73;;;6.50;;
5355;SDS011;70449;52.486;13.386;2023-11-18T02:53:19;8.67;;;6.60;;
5355;SDS011;70449;52.486;13.386;2023-11-18T02:55:47;9.43;;;7.00;;
5355;SDS011;70449;52.486;13.386;2023-11-18T02:58:17;11.90;;;7.10;;
5355;SDS011;70449;52.486;13.386;2023-11-18T03:00:45;12.43;;;7.40;;
5355;SDS011;70449;52.486;13.386;2023-11-18T03:03:13;7.23;;;6.13;;
5355;SDS011;70449;52.486;13.386;2023-11-18T03:05:40;10.60;;;5.10;;
5355;SDS011;70449;52.486;13.386;2023-11-18T03:08:07;13.93;;;6.50;;
5355;SDS011;70449;52.486;13.386;2023-11-18T03:10:34;12.93;;;6.00;;
5355;SDS011;70449;52.486;13.386;2023-11-18T03:13:02;15.33;;;6.73;;
5355;SDS011;70449;52.486;13.386;2023-11-18T03:15:29;8.23;;;5.80;;
5355;SDS011;70449;52.486;13.386;2023-11-18T03:17:58;11.87;;;6.83;;
5355;SDS011;70449;52.486;13.386;2023-11-18T03:20:25;13.40;;;6.47;;
5355;SDS011;70449;52.486;13.386;2023-11-18T03:22:54;7.97;;;6.43;;
5355;SDS011;70449;52.486;13.386;2023-11-18T03:25:21;17.10;;;6.63;;
5355;SDS011;70449;52.486;13.386;2023-11-18T03:27:49;9.37;;;5.30;;
5355;SDS011;70449;52.486;13.386;2023-11-18T03:30:16;10.10;;;6.03;;
5355;SDS011;70449;52.486;13.386;2023-11-18T03:32:43;15.00;;;7.33;;
5355;SDS011;70449;52.486;13.386;2023-11-18T03:35:11;7.67;;;6.17;;
5355;SDS011;70449;52.486;13.386;2023-11-18T03:37:40;13.33;;;6.10;;
5355;SDS011;70449;52.486;13.386;2023-11-18T03:40:08;11.03;;;7.40;;
5355;SDS011;70449;52.486;13.386;2023-11-18T03:42:37;7.10;;;5.90;;
5355;SDS011;70449;52.486;13.386;2023-11-18T03:45:05;7.70;;;5.30;;
5355;SDS011;70449;52.486;13.386;2023-11-18T03:47:34;6.17;;;5.20;;
5355;SDS011;70449;52.486;13.386;2023-11-18T03:50:01;6.97;;;5.10;;
5355;SDS011;70449;52.486;13.386;2023-11-18T03:52:30;10.30;;;6.07;;
5355;SDS011;70449;52.486;13.386;2023-11-18T03:54:57;7.87;;;5.60;;
5355;SDS011;70449;52.486;13.386;2023-11-18T03:57:24;14.83;;;5.33;;
5355;SDS011;70449;52.486;13.386;2023-11-18T03:59:52;7.23;;;5.37;;
5355;SDS011;70449;52.486;13.386;2023-11-18T04:02:19;9.07;;;5.13;;
5355;SDS011;70449;52.486;13.386;2023-11-18T04:04:46;6.20;;;4.60;;
5355;SDS011;70449;52.486;13.386;2023-11-18T04:07:13;7.10;;;5.13;;
5355;SDS011;70449;52.486;13.386;2023-11-18T04:09:42;6.13;;;4.93;;
5355;SDS011;70449;52.486;13.386;2023-11-18T04:12:09;8.33;;;5.67;;
5355;SDS011;70449;52.486;13.386;2023-11-18T04:14:37;11.40;;;6.93;;
5355;SDS011;70449;52.486;13.386;2023-11-18T04:17:04;18.77;;;6.30;;
5355;SDS011;70449;52.486;13.386;2023-11-18T04:19:31;6.50;;;5.50;;
5355;SDS011;70449;52.486;13.386;2023-11-18T04:21:58;12.27;;;6.60;;
5355;SDS011;70449;52.486;13.386;2023-11-18T04:24:25;7.37;;;6.03;;
5355;SDS011;70449;52.486;13.386;2023-11-18T04:26:54;9.87;;;5.83;;
5355;SDS011;70449;52.486;13.386;2023-11-18T04:29:23;9.97;;;6.70;;
5355;SDS011;70449;52.486;13.386;2023-11-18T04:31:51;8.80;;;6.90;;
5355;SDS011;70449;52.486;13.386;2023-11-18T04:34:19;9.10;;;5.80;;
5355;SDS011;70449;52.486;13.386;2023-11-18T04:36:47;8.60;;;6.67;;
5355;SDS011;70449;52.486;13.386;2023-11-18T04:39:14;11.30;;;7.50;;
5355;SDS011;70449;52.486;13.386;2023-11-18T04:41:42;11.17;;;7.90;;
5355;SDS011;70449;52.486;13.386;2023-11-18T04:44:11;10.07;;;7.13;;
5355;SDS011;70449;52.486;13.386;2023-11-18T04:46:39;10.20;;;7.83;;
5355;SDS011;70449;52.486;13.386;2023-11-18T04:49:06;7.40;;;6.53;;
5355;SDS011;70449;52.486;13.386;2023-11-18T04:51:35;9.67;;;7.07;;
5355;SDS011;70449;52.486;13.386;2023-11-18T04:54:02;12.60;;;7.77;;
5355;SDS011;70449;52.486;13.386;2023-11-18T04:56:33;10.33;;;7.27;;
5355;SDS011;70449;52.486;13.386;2023-11-18T04:59:00;10.30;;;7.27;;
5355;SDS011;70449;52.486;13.386;2023-11-18T05:01:31;15.00;;;8.60;;
5355;SDS011;70449;52.486;13.386;2023-11-18T05:03:58;17.77;;;7.53;;
5355;SDS011;70449;52.486;13.386;2023-11-18T05:06:26;11.73;;;7.37;;
5355;SDS011;70449;52.486;13.386;2023-11-18T05:08:53;21.37;;;7.40;;
5355;SDS011;70449;52.486;13.386;2023-11-18T05:11:20;11.70;;;7.60;;
5355;SDS011;70449;52.486;13.386;2023-11-18T05:13:47;14.63;;;7.70;;
5355;SDS011;70449;52.486;13.386;2023-11-18T05:16:15;11.33;;;7.73;;
5355;SDS011;70449;52.486;13.386;2023-11-18T05:18:44;14.43;;;7.77;;
5355;SDS011;70449;52.486;13.386;2023-11-18T05:21:11;9.23;;;6.53;;
5355;SDS011;70449;52.486;13.386;2023-11-18T05:23:38;11.30;;;7.13;;
5355;SDS011;70449;52.486;13.386;2023-11-18T05:26:05;14.03;;;7.93;;
5355;SDS011;70449;52.486;13.386;2023-11-18T05:28:34;13.10;;;8.27;;
5355;SDS011;70449;52.486;13.386;2023-11-18T05:31:01;14.10;;;6.90;;
5355;SDS011;70449;52.486;13.386;2023-11-18T05:33:29;15.43;;;8.03;;
5355;SDS011;70449;52.486;13.386;2023-11-18T05:36:00;15.20;;;7.20;;
5355;SDS011;70449;52.486;13.386;2023-11-18T05:38:30;14.70;;;8.70;;
5355;SDS011;70449;52.486;13.386;2023-11-18T05:41:00;12.70;;;7.63;;
5355;SDS011;70449;52.486;13.386;2023-11-18T05:43:29;11.57;;;6.77;;
5355;SDS011;70449;52.486;13.386;2023-11-18T05:46:01;9.23;;;6.40;;
5355;SDS011;70449;52.486;13.386;2023-11-18T05:48:45;11.20;;;7.60;;
5355;SDS011;70449;52.486;13.386;2023-11-18T05:51:18;12.37;;;7.50;;
5355;SDS011;70449;52.486;13.386;2023-11-18T05:53:47;12.40;;;7.70;;
5355;SDS011;70449;52.486;13.386;2023-11-18T05:56:16;16.17;;;7.83;;
5355;SDS011;70449;52.486;13.386;2023-11-18T05:58:43;14.57;;;8.90;;
5355;SDS011;70449;52.486;13.386;2023-11-18T06:01:10;13.33;;;8.13;;
5355;SDS011;70449;52.486;13.386;2023-11-18T06:03:39;13.60;;;8.10;;
5355;SDS011;70449;52.486;13.386;2023-11-18T06:06:08;19.37;;;9.30;;
5355;SDS011;70449;52.486;13.386;2023-11-18T06:08:38;14.73;;;7.97;;
5355;SDS011;70449;52.486;13.386;2023-11-18T06:11:06;24.63;;;9.07;;
5355;SDS011;70449;52.486;13.386;2023-11-18T06:13:39;13.80;;;8.30;;
5355;SDS011;70449;52.486;13.386;2023-11-18T06:16:14;11.77;;;7.20;;
5355;SDS011;70449;52.486;13.386;2023-11-18T06:18:45;19.00;;;9.47;;
5355;SDS011;70449;52.486;13.386;2023-11-18T06:21:13;12.20;;;8.13;;
5355;SDS011;70449;52.486;13.386;2023-11-18T06:23:43;16.40;;;8.50;;
5355;SDS011;70449;52.486;13.386;2023-11-18T06:26:12;14.50;;;7.63;;
5355;SDS011;70449;52.486;13.386;2023-11-18T06:28:40;14.47;;;8.33;;
5355;SDS011;70449;52.486;13.386;2023-11-18T06:31:08;14.83;;;8.10;;
5355;SDS011;70449;52.486;13.386;2023-11-18T06:33:37;13.27;;;7.43;;
5355;SDS011;70449;52.486;13.386;2023-11-18T06:36:08;10.60;;;7.27;;
5355;SDS011;70449;52.486;13.386;2023-11-18T06:38:36;8.57;;;7.07;;
5355;SDS011;70449;52.486;13.386;2023-11-18T06:41:05;12.23;;;8.23;;
5355;SDS011;70449;52.486;13.386;2023-11-18T06:43:37;11.10;;;8.00;;
5355;SDS011;70449;52.486;13.386;2023-11-18T06:46:17;14.17;;;8.17;;
5355;SDS011;70449;52.486;13.386;2023-11-18T06:48:47;20.67;;;7.70;;
5355;SDS011;70449;52.486;13.386;2023-11-18T06:51:15;18.00;;;7.40;;
5355;SDS011;70449;52.486;13.386;2023-11-18T06:53:42;11.67;;;7.70;;
5355;SDS011;70449;52.486;13.386;2023-11-18T06:56:11;14.00;;;7.90;;
5355;SDS011;70449;52.486;13.386;2023-11-18T06:58:38;10.53;;;6.93;;
5355;SDS011;70449;52.486;13.386;2023-11-18T07:01:07;11.33;;;7.10;;
5355;SDS011;70449;52.486;13.386;2023-11-18T07:03:35;27.30;;;8.63;;
5355;SDS011;70449;52.486;13.386;2023-11-18T07:06:03;13.37;;;7.77;;
5355;SDS011;70449;52.486;13.386;2023-11-18T07:08:31;11.37;;;7.03;;
5355;SDS011;70449;52.486;13.386;2023-11-18T07:11:00;11.70;;;7.60;;
5355;SDS011;70449;52.486;13.386;2023-11-18T07:13:29;11.37;;;6.80;;
5355;SDS011;70449;52.486;13.386;2023-11-18T07:15:56;12.23;;;7.10;;
5355;SDS011;70449;52.486;13.386;2023-11-18T07:18:23;11.67;;;7.37;;
5355;SDS011;70449;52.486;13.386;2023-11-18T07:20:51;12.23;;;7.53;;
5355;SDS011;70449;52.486;13.386;2023-11-18T07:23:18;22.83;;;9.53;;
5355;SDS011;70449;52.486;13.386;2023-11-18T07:25:45;19.47;;;8.53;;
5355;SDS011;70449;52.486;13.386;2023-11-18T07:28:13;19.00;;;8.30;;
5355;SDS011;70449;52.486;13.386;2023-11-18T07:30:43;13.63;;;9.30;;
5355;SDS011;70449;52.486;13.386;2023-11-18T07:33:12;12.27;;;8.73;;
5355;SDS011;70449;52.486;13.386;2023-11-18T07:35:41;14.57;;;8.30;;
5355;SDS011;70449;52.486;13.386;2023-11-18T07:38:08;16.03;;;9.40;;
5355;SDS011;70449;52.486;13.386;2023-11-18T07:40:36;19.57;;;9.47;;
5355;SDS011;70449;52.486;13.386;2023-11-18T07:43:07;14.87;;;9.27;;
5355;SDS011;70449;52.486;13.386;2023-11-18T07:45:35;12.63;;;9.00;;
5355;SDS011;70449;52.486;13.386;2023-11-18T07:48:05;15.87;;;9.60;;
5355;SDS011;70449;52.486;13.386;2023-11-18T07:50:33;17.83;;;8.10;;
5355;SDS011;70449;52.486;13.386;2023-11-18T07:53:01;14.10;;;8.37;;
5355;SDS011;70449;52.486;13.386;2023-11-18T07:55:31;14.20;;;8.97;;
5355;SDS011;70449;52.486;13.386;2023-11-18T07:57:59;16.60;;;9.13;;
5355;SDS011;70449;52.486;13.386;2023-11-18T08:00:29;17.00;;;9.83;;
5355;SDS011;70449;52.486;13.386;2023-11-18T08:02:56;14.83;;;9.23;;
5355;SDS011;70449;52.486;13.386;2023-11-18T08:05:26;14.00;;;8.90;;
5355;SDS011;70449;52.486;13.386;2023-11-18T08:07:56;13.43;;;8.77;;
5355;SDS011;70449;52.486;13.386;2023-11-18T08:10:24;15.10;;;8.17;;
5355;SDS011;70449;52.486;13.386;2023-11-18T08:12:51;15.57;;;9.77;;
5355;SDS011;70449;52.486;13.386;2023-11-18T08:15:19;15.60;;;8.60;;
5355;SDS011;70449;52.486;13.386;2023-11-18T08:17:46;16.03;;;9.57;;
5355;SDS011;70449;52.486;13.386;2023-11-18T08:20:15;14.57;;;9.27;;
5355;SDS011;70449;52.486;13.386;2023-11-18T08:22:44;16.20;;;9.60;;
5355;SDS011;70449;52.486;13.386;2023-11-18T08:25:11;15.60;;;9.33;;
5355;SDS011;70449;52.486;13.386;2023-11-18T08:27:42;16.10;;;9.10;;
5355;SDS011;70449;52.486;13.386;2023-11-18T08:30:11;18.80;;;8.43;;
5355;SDS011;70449;52.486;13.386;2023-11-18T08:32:39;17.17;;;9.20;;
5355;SDS011;70449;52.486;13.386;2023-11-18T08:35:10;19.27;;;9.20;;
5355;SDS011;70449;52.486;13.386;2023-11-18T08:37:38;13.90;;;9.10;;
5355;SDS011;70449;52.486;13.386;2023-11-18T08:40:09;17.43;;;9.90;;
5355;SDS011;70449;52.486;13.386;2023-11-18T08:42:40;19.10;;;9.70;;
5355;SDS011;70449;52.486;13.386;2023-11-18T08:45:13;16.73;;;8.37;;
5355;SDS011;70449;52.486;13.386;2023-11-18T08:47:43;15.07;;;7.93;;
5355;SDS011;70449;52.486;13.386;2023-11-18T08:50:12;10.90;;;7.07;;
5355;SDS011;70449;52.486;13.386;2023-11-18T08:52:41;13.70;;;8.13;;
5355;SDS011;70449;52.486;13.386;2023-11-18T08:55:14;18.00;;;7.73;;
5355;SDS011;70449;52.486;13.386;2023-11-18T08:57:46;19.33;;;7.87;;
5355;SDS011;70449;52.486;13.386;2023-11-18T09:00:17;12.40;;;7.80;;
5355;SDS011;70449;52.486;13.386;2023-11-18T09:02:59;9.77;;;6.83;;
5355;SDS011;70449;52.486;13.386;2023-11-18T09:05:30;9.90;;;7.33;;
5355;SDS011;70449;52.486;13.386;2023-11-18T09:08:01;11.50;;;7.00;;
5355;SDS011;70449;52.486;13.386;2023-11-18T09:10:32;11.90;;;7.40;;
5355;SDS011;70449;52.486;13.386;2023-11-18T09:13:00;11.57;;;7.63;;
5355;SDS011;70449;52.486;13.386;2023-11-18T09:15:28;15.40;;;8.63;;
5355;SDS011;70449;52.486;13.386;2023-11-18T09:17:56;10.00;;;7.47;;
5355;SDS011;70449;52.486;13.386;2023-11-18T09:20:25;11.67;;;7.43;;
5355;SDS011;70449;52.486;13.386;2023-11-18T09:22:52;10.80;;;6.80;;
5355;SDS011;70449;52.486;13.386;2023-11-18T09:25:21;9.80;;;7.20;;
5355;SDS011;70449;52.486;13.386;2023-11-18T09:27:49;10.93;;;7.20;;
5355;SDS011;70449;52.486;13.386;2023-11-18T09:30:17;9.20;;;7.10;;
5355;SDS011;70449;52.486;13.386;2023-11-18T09:32:44;15.60;;;7.10;;
5355;SDS011;70449;52.486;13.386;2023-11-18T09:35:13;13.40;;;7.50;;
5355;SDS011;70449;52.486;13.386;2023-11-18T09:37:40;6.33;;;5.40;;
5355;SDS011;70449;52.486;13.386;2023-11-18T09:40:08;14.00;;;7.87;;
5355;SDS011;70449;52.486;13.386;2023-11-18T09:42:39;12.23;;;7.50;;
5355;SDS011;70449;52.486;13.386;2023-11-18T09:45:10;12.13;;;7.10;;
5355;SDS011;70449;52.486;13.386;2023-11-18T09:47:41;12.20;;;7.60;;
5355;SDS011;70449;52.486;13.386;2023-11-18T09:50:13;10.87;;;7.60;;
5355;SDS011;70449;52.486;13.386;2023-11-18T09:52:47;15.83;;;6.63;;
5355;SDS011;70449;52.486;13.386;2023-11-18T09:55:21;10.40;;;6.97;;
5355;SDS011;70449;52.486;13.386;2023-11-18T09:57:59;10.30;;;7.33;;
5355;SDS011;70449;52.486;13.386;2023-11-18T10:00:39;11.80;;;7.00;;
5355;SDS011;70449;52.486;13.386;2023-11-18T10:03:08;11.67;;;7.80;;
5355;SDS011;70449;52.486;13.386;2023-11-18T10:05:40;13.20;;;8.00;;
5355;SDS011;70449;52.486;13.386;2023-11-18T10:08:08;12.07;;;8.37;;
5355;SDS011;70449;52.486;13.386;2023-11-18T10:10:35;17.13;;;9.97;;
5355;SDS011;70449;52.486;13.386;2023-11-18T10:13:03;15.47;;;10.17;;
5355;SDS011;70449;52.486;13.386;2023-11-18T10:15:45;16.43;;;9.13;;
5355;SDS011;70449;52.486;13.386;2023-11-18T10:18:13;18.20;;;10.00;;
5355;SDS011;70449;52.486;13.386;2023-11-18T10:20:47;15.13;;;9.27;;
5355;SDS011;70449;52.486;13.386;2023-11-18T10:23:17;14.80;;;8.83;;
5355;SDS011;70449;52.486;13.386;2023-11-18T10:25:47;16.60;;;8.43;;
5355;SDS011;70449;52.486;13.386;2023-11-18T10:28:21;13.73;;;7.80;;
5355;SDS011;70449;52.486;13.386;2023-11-18T10:30:54;13.07;;;8.30;;
5355;SDS011;70449;52.486;13.386;2023-11-18T10:33:24;12.67;;;7.70;;
5355;SDS011;70449;52.486;13.386;2023-11-18T10:35:55;14.90;;;8.37;;
5355;SDS011;70449;52.486;13.386;2023-11-18T10:38:23;12.43;;;7.73;;
5355;SDS011;70449;52.486;13.386;2023-11-18T10:40:54;14.30;;;8.40;;
5355;SDS011;70449;52.486;13.386;2023-11-18T10:43:23;10.67;;;6.87;;
5355;SDS011;70449;52.486;13.386;2023-11-18T10:46:03;12.03;;;7.23;;
5355;SDS011;70449;52.486;13.386;2023-11-18T10:48:37;14.33;;;7.77;;
5355;SDS011;70449;52.486;13.386;2023-11-18T10:51:08;12.47;;;8.13;;
5355;SDS011;70449;52.486;13.386;2023-11-18T10:53:38;12.50;;;7.30;;
5355;SDS011;70449;52.486;13.386;2023-11-18T10:56:18;11.27;;;7.77;;
5355;SDS011;70449;52.486;13.386;2023-11-18T10:58:51;13.40;;;7.70;;
5355;SDS011;70449;52.486;13.386;2023-11-18T11:01:28;11.57;;;7.37;;
5355;SDS011;70449;52.486;13.386;2023-11-18T11:03:57;10.80;;;7.27;;
5355;SDS011;70449;52.486;13.386;2023-11-18T11:06:24;12.73;;;7.10;;
5355;SDS011;70449;52.486;13.386;2023-11-18T11:08:55;10.83;;;7.17;;
5355;SDS011;70449;52.486;13.386;2023-11-18T11:11:25;10.10;;;7.00;;
5355;SDS011;70449;52.486;13.386;2023-11-18T11:13:59;10.70;;;6.97;;
5355;SDS011;70449;52.486;13.386;2023-11-18T11:16:33;10.00;;;7.00;;
5355;SDS011;70449;52.486;13.386;2023-11-18T11:19:08;12.73;;;6.70;;
5355;SDS011;70449;52.486;13.386;2023-11-18T11:21:49;10.67;;;6.97;;
5355;SDS011;70449;52.486;13.386;2023-11-18T11:24:26;11.40;;;7.50;;
5355;SDS011;70449;52.486;13.386;2023-11-18T11:27:09;11.30;;;6.60;;
5355;SDS011;70449;52.486;13.386;2023-11-18T11:29:54;10.87;;;7.43;;
5355;SDS011;70449;52.486;13.386;2023-11-18T11:32:38;8.60;;;6.00;;
5355;SDS011;70449;52.486;13.386;2023-11-18T11:35:14;11.53;;;6.77;;
5355;SDS011;70449;52.486;13.386;2023-11-18T11:37:48;11.77;;;6.53;;
5355;SDS011;70449;52.486;13.386;2023-11-18T11:40:19;10.93;;;6.87;;
5355;SDS011;70449;52.486;13.386;2023-11-18T11:42:49;11.63;;;7.20;;
5355;SDS011;70449;52.486;13.386;2023-11-18T11:45:21;12.97;;;6.20;;
5355;SDS011;70449;52.486;13.386;2023-11-18T11:47:55;10.07;;;6.80;;
5355;SDS011;70449;52.486;13.386;2023-11-18T11:50:43;14.23;;;8.10;;
5355;SDS011;70449;52.486;13.386;2023-11-18T11:53:46;13.83;;;7.87;;
5355;SDS011;70449;52.486;13.386;2023-11-18T11:56:27;13.00;;;7.80;;
5355;SDS011;70449;52.486;13.386;2023-11-18T11:59:06;11.03;;;7.23;;
5355;SDS011;70449;52.486;13.386;2023-11-18T12:01:36;17.70;;;8.07;;
5355;SDS011;70449;52.486;13.386;2023-11-18T12:04:08;15.50;;;8.70;;
5355;SDS011;70449;52.486;13.386;2023-11-18T12:06:46;13.07;;;7.90;;
5355;SDS011;70449;52.486;13.386;2023-11-18T12:09:18;18.50;;;9.30;;
5355;SDS011;70449;52.486;13.386;2023-11-18T12:11:46;19.43;;;9.47;;
5355;SDS011;70449;52.486;13.386;2023-11-18T12:14:15;17.10;;;9.40;;
5355;SDS011;70449;52.486;13.386;2023-11-18T12:17:06;17.17;;;9.73;;
5355;SDS011;70449;52.486;13.386;2023-11-18T12:19:36;18.47;;;9.57;;
5355;SDS011;70449;52.486;13.386;2023-11-18T12:22:14;13.03;;;9.80;;
5355;SDS011;70449;52.486;13.386;2023-11-18T12:27:57;14.43;;;7.83;;
5355;SDS011;70449;52.486;13.386;2023-11-18T12:33:52;11.80;;;6.97;;
5355;SDS011;70449;52.486;13.386;2023-11-18T12:36:44;15.33;;;7.90;;
5355;SDS011;70449;52.486;13.386;2023-11-18T12:43:03;16.83;;;8.17;;
5355;SDS011;70449;52.486;13.386;2023-11-18T12:45:43;11.50;;;7.47;;
5355;SDS011;70449;52.486;13.386;2023-11-18T12:48:31;11.93;;;7.60;;
5355;SDS011;70449;52.486;13.386;2023-11-18T12:51:01;13.30;;;8.03;;
5355;SDS011;70449;52.486;13.386;2023-11-18T12:53:36;11.30;;;7.53;;
5355;SDS011;70449;52.486;13.386;2023-11-18T12:56:05;16.90;;;8.17;;
5355;SDS011;70449;52.486;13.386;2023-11-18T12:58:33;15.00;;;7.30;;
5355;SDS011;70449;52.486;13.386;2023-11-18T13:01:00;12.60;;;7.73;;
5355;SDS011;70449;52.486;13.386;2023-11-18T13:03:28;12.90;;;6.53;;
5355;SDS011;70449;52.486;13.386;2023-11-18T13:05:55;12.93;;;5.80;;
5355;SDS011;70449;52.486;13.386;2023-11-18T13:08:22;9.40;;;6.30;;
5355;SDS011;70449;52.486;13.386;2023-11-18T13:10:53;9.73;;;6.17;;
5355;SDS011;70449;52.486;13.386;2023-11-18T13:13:24;11.60;;;6.73;;
5355;SDS011;70449;52.486;13.386;2023-11-18T13:15:52;11.00;;;6.83;;
5355;SDS011;70449;52.486;13.386;2023-11-18T13:18:19;10.30;;;5.80;;
5355;SDS011;70449;52.486;13.386;2023-11-18T13:20:56;11.40;;;6.80;;
5355;SDS011;70449;52.486;13.386;2023-11-18T13:23:24;17.33;;;7.37;;
5355;SDS011;70449;52.486;13.386;2023-11-18T13:25:55;11.40;;;6.80;;
5355;SDS011;70449;52.486;13.386;2023-11-18T13:28:25;9.67;;;6.30;;
5355;SDS011;70449;52.486;13.386;2023-11-18T13:30:53;9.77;;;5.70;;
5355;SDS011;70449;52.486;13.386;2023-11-18T13:33:20;13.73;;;5.20;;
5355;SDS011;70449;52.486;13.386;2023-11-18T13:35:47;8.27;;;5.63;;
5355;SDS011;70449;52.486;13.386;2023-11-18T13:38:15;10.50;;;6.37;;
5355;SDS011;70449;52.486;13.386;2023-11-18T13:40:44;15.90;;;6.70;;
5355;SDS011;70449;52.486;13.386;2023-11-18T13:43:13;9.83;;;6.30;;
5355;SDS011;70449;52.486;13.386;2023-11-18T13:45:41;10.50;;;6.97;;
5355;SDS011;70449;52.486;13.386;2023-11-18T13:48:08;9.47;;;6.03;;
5355;SDS011;70449;52.486;13.386;2023-11-18T13:50:40;9.47;;;6.37;;
5355;SDS011;70449;52.486;13.386;2023-11-18T13:53:07;10.80;;;5.60;;
5355;SDS011;70449;52.486;13.386;2023-11-18T13:55:35;10.03;;;6.07;;
5355;SDS011;70449;52.486;13.386;2023-11-18T13:58:04;10.00;;;6.50;;
5355;SDS011;70449;52.486;13.386;2023-11-18T14:00:33;11.20;;;6.27;;
5355;SDS011;70449;52.486;13.386;2023-11-18T14:03:01;10.63;;;6.83;;
5355;SDS011;70449;52.486;13.386;2023-11-18T14:05:32;11.13;;;6.40;;
5355;SDS011;70449;52.486;13.386;2023-11-18T14:08:00;25.40;;;6.77;;
5355;SDS011;70449;52.486;13.386;2023-11-18T14:10:33;14.33;;;6.50;;
5355;SDS011;70449;52.486;13.386;2023-11-18T14:13:03;10.00;;;6.17;;
5355;SDS011;70449;52.486;13.386;2023-11-18T14:15:35;10.23;;;6.57;;
5355;SDS011;70449;52.486;13.386;2023-11-18T14:18:03;13.03;;;7.17;;
5355;SDS011;70449;52.486;13.386;2023-11-18T14:20:32;12.63;;;7.10;;
5355;SDS011;70449;52.486;13.386;2023-11-18T14:23:00;12.23;;;6.93;;
5355;SDS011;70449;52.486;13.386;2023-11-18T14:25:28;17.33;;;8.10;;
5355;SDS011;70449;52.486;13.386;2023-11-18T14:27:57;13.60;;;8.60;;
5355;SDS011;70449;52.486;13.386;2023-11-18T14:30:24;12.90;;;6.87;;
5355;SDS011;70449;52.486;13.386;2023-11-18T14:32:53;16.87;;;8.40;;
5355;SDS011;70449;52.486;13.386;2023-11-18T14:35:20;11.27;;;7.30;;
5355;SDS011;70449;52.486;13.386;2023-11-18T14:37:50;18.97;;;8.43;;
5355;SDS011;70449;52.486;13.386;2023-11-18T14:40:17;16.37;;;7.77;;
5355;SDS011;70449;52.486;13.386;2023-11-18T14:42:49;23.40;;;9.00;;
5355;SDS011;70449;52.486;13.386;2023-11-18T14:45:17;15.60;;;8.40;;
5355;SDS011;70449;52.486;13.386;2023-11-18T14:47:45;22.83;;;9.07;;
5355;SDS011;70449;52.486;13.386;2023-11-18T14:50:18;17.83;;;8.57;;
5355;SDS011;70449;52.486;13.386;2023-11-18T14:52:46;10.40;;;7.50;;
5355;SDS011;70449;52.486;13.386;2023-11-18T14:55:16;19.63;;;8.17;;
5355;SDS011;70449;52.486;13.386;2023-11-18T14:57:44;14.20;;;8.23;;
5355;SDS011;70449;52.486;13.386;2023-11-18T15:00:12;17.97;;;8.23;;
5355;SDS011;70449;52.486;13.386;2023-11-18T15:02:46;12.10;;;7.87;;
5355;SDS011;70449;52.486;13.386;2023-11-18T15:05:16;12.13;;;7.70;;